sensor_id;sensor_type;location;lat;lon;timestamp;pressure;altitude;pressure_sealevel;temperature;humidity
19827;BME280;10074;52.018;4.726;2023-05-24T00:00:14;46562.13;;;-144.79;91.88
19827;BME280;10074;52.018;4.726;2023-05-24T00:05:16;46572.16;;;-144.79;91.96
19827;BME280;10074;52.018;4.726;2023-05-24T00:10:17;46572.16;;;-144.79;91.90
19827;BME280;10074;52.018;4.726;2023-05-24T00:15:18;46562.13;;;-144.79;92.31
19827;BME280;10074;52.018;4.726;2023-05-24T00:20:18;46548.09;;;-144.79;92.39
19827;BME280;10074;52.018;4.726;2023-05-24T00:25:19;46526.03;;;-144.79;92.72
19827;BME280;10074;52.018;4.726;2023-05-24T00:30:20;46556.13;;;-144.79;91.86
19827;BME280;10074;52.018;4.726;2023-05-24T00:35:20;46558.13;;;-144.79;92.43
19827;BME280;10074;52.018;4.726;2023-05-24T00:40:20;46560.13;;;-144.79;92.29
19827;BME280;10074;52.018;4.726;2023-05-24T00:45:21;46524.03;;;-144.79;92.82
19827;BME280;10074;52.018;4.726;2023-05-24T00:50:21;46526.03;;;-144.79;92.61
19827;BME280;10074;52.018;4.726;2023-05-24T00:55:22;46544.09;;;-144.79;92.72
19827;BME280;10074;52.018;4.726;2023-05-24T01:00:22;46568.16;;;-144.79;92.50
19827;BME280;10074;52.018;4.726;2023-05-24T01:05:23;46548.09;;;-144.79;92.68
19827;BME280;10074;52.018;4.726;2023-05-24T01:15:53;46514.00;;;-144.79;93.03
19827;BME280;10074;52.018;4.726;2023-05-24T01:21:15;46540.06;;;-144.79;92.59
19827;BME280;10074;52.018;4.726;2023-05-24T01:26:21;46548.09;;;-144.79;93.09
19827;BME280;10074;52.018;4.726;2023-05-24T01:31:26;46566.16;;;-144.79;92.72
19827;BME280;10074;52.018;4.726;2023-05-24T01:36:27;46536.06;;;-144.79;92.94
19827;BME280;10074;52.018;4.726;2023-05-24T01:52:22;46556.13;;;-144.79;93.17
19827;BME280;10074;52.018;4.726;2023-05-24T01:57:23;46556.13;;;-144.79;92.93
19827;BME280;10074;52.018;4.726;2023-05-24T02:02:26;46572.16;;;-144.79;92.64
19827;BME280;10074;52.018;4.726;2023-05-24T02:07:26;46550.09;;;-144.79;93.05
19827;BME280;10074;52.018;4.726;2023-05-24T02:12:27;46568.16;;;-144.79;92.69
19827;BME280;10074;52.018;4.726;2023-05-24T02:17:27;46582.19;;;-144.79;93.02
19827;BME280;10074;52.018;4.726;2023-05-24T02:22:28;46578.19;;;-144.79;92.69
19827;BME280;10074;52.018;4.726;2023-05-24T02:27:28;46606.25;;;-144.79;92.89
19827;BME280;10074;52.018;4.726;2023-05-24T02:32:29;46576.16;;;-144.79;92.68
19827;BME280;10074;52.018;4.726;2023-05-24T02:37:30;46566.16;;;-144.79;92.86
19827;BME280;10074;52.018;4.726;2023-05-24T02:42:31;46596.22;;;-144.79;92.59
19827;BME280;10074;52.018;4.726;2023-05-24T02:47:31;46596.22;;;-144.79;92.88
19827;BME280;10074;52.018;4.726;2023-05-24T02:52:31;46594.22;;;-144.79;92.89
19827;BME280;10074;52.018;4.726;2023-05-24T02:57:32;46576.16;;;-144.79;92.67
19827;BME280;10074;52.018;4.726;2023-05-24T03:02:33;46576.16;;;-144.79;92.99
19827;BME280;10074;52.018;4.726;2023-05-24T03:07:37;46580.19;;;-144.79;92.89
19827;BME280;10074;52.018;4.726;2023-05-24T03:12:37;46568.16;;;-144.79;93.17
19827;BME280;10074;52.018;4.726;2023-05-24T03:17:37;46596.22;;;-144.79;93.49
19827;BME280;10074;52.018;4.726;2023-05-24T03:22:38;46548.09;;;-144.79;93.41
19827;BME280;10074;52.018;4.726;2023-05-24T03:27:38;46526.03;;;-144.79;93.67
19827;BME280;10074;52.018;4.726;2023-05-24T03:32:39;46576.16;;;-144.79;93.32
19827;BME280;10074;52.018;4.726;2023-05-24T03:37:39;46568.16;;;-144.79;93.20
19827;BME280;10074;52.018;4.726;2023-05-24T03:42:39;46564.13;;;-144.79;93.39
19827;BME280;10074;52.018;4.726;2023-05-24T03:47:40;46546.09;;;-144.79;93.52
19827;BME280;10074;52.018;4.726;2023-05-24T03:52:41;46566.16;;;-144.79;93.41
19827;BME280;10074;52.018;4.726;2023-05-24T03:57:41;46566.16;;;-144.79;93.37
19827;BME280;10074;52.018;4.726;2023-05-24T04:02:42;46558.13;;;-144.79;93.53
19827;BME280;10074;52.018;4.726;2023-05-24T04:07:42;46524.03;;;-144.79;94.37
19827;BME280;10074;52.018;4.726;2023-05-24T04:12:44;46512.00;;;-144.79;94.22
19827;BME280;10074;52.018;4.726;2023-05-24T04:17:45;46475.91;;;-144.79;94.95
19827;BME280;10074;52.018;4.726;2023-05-24T04:22:46;46441.81;;;-144.79;95.28
19827;BME280;10074;52.018;4.726;2023-05-24T04:27:46;46431.78;;;-144.79;95.36
19827;BME280;10074;52.018;4.726;2023-05-24T04:32:50;46415.75;;;-144.79;95.60
19827;BME280;10074;52.018;4.726;2023-05-24T04:37:51;46415.75;;;-144.79;95.43
19827;BME280;10074;52.018;4.726;2023-05-24T04:42:51;46371.63;;;-144.79;96.57
19827;BME280;10074;52.018;4.726;2023-05-24T04:47:51;46361.63;;;-144.79;96.55
19827;BME280;10074;52.018;4.726;2023-05-24T04:52:52;46365.63;;;-144.79;96.90
19827;BME280;10074;52.018;4.726;2023-05-24T04:57:52;46359.59;;;-144.79;96.78
19827;BME280;10074;52.018;4.726;2023-05-24T05:02:53;46345.56;;;-144.79;97.13
19827;BME280;10074;52.018;4.726;2023-05-24T05:07:53;46311.50;;;-144.79;96.87
19827;BME280;10074;52.018;4.726;2023-05-24T05:12:54;46291.44;;;-144.79;98.12
19827;BME280;10074;52.018;4.726;2023-05-24T05:17:54;46283.41;;;-144.79;98.65
19827;BME280;10074;52.018;4.726;2023-05-24T05:22:55;46227.28;;;-144.79;99.51
19827;BME280;10074;52.018;4.726;2023-05-24T05:27:55;46243.31;;;-144.79;100.00
19827;BME280;10074;52.018;4.726;2023-05-24T05:32:56;46203.22;;;-144.79;100.00
19827;BME280;10074;52.018;4.726;2023-05-24T05:37:56;46191.19;;;-144.79;100.00
19827;BME280;10074;52.018;4.726;2023-05-24T05:42:56;46173.13;;;-144.79;100.00
19827;BME280;10074;52.018;4.726;2023-05-24T05:47:56;46193.19;;;-144.79;100.00
19827;BME280;10074;52.018;4.726;2023-05-24T05:52:57;46153.09;;;-144.79;100.00
19827;BME280;10074;52.018;4.726;2023-05-24T05:57:57;46151.09;;;-144.79;100.00
19827;BME280;10074;52.018;4.726;2023-05-24T06:02:57;46159.09;;;-144.79;100.00
19827;BME280;10074;52.018;4.726;2023-05-24T06:07:58;46139.06;;;-144.79;100.00
19827;BME280;10074;52.018;4.726;2023-05-24T06:13:01;46157.09;;;-144.79;100.00
19827;BME280;10074;52.018;4.726;2023-05-24T06:18:02;46143.06;;;-144.79;100.00
19827;BME280;10074;52.018;4.726;2023-05-24T06:23:02;46125.03;;;-144.79;100.00
19827;BME280;10074;52.018;4.726;2023-05-24T06:28:03;46147.06;;;-144.79;100.00
19827;BME280;10074;52.018;4.726;2023-05-24T06:33:04;46113.00;;;-144.79;100.00
19827;BME280;10074;52.018;4.726;2023-05-24T06:38:04;46119.00;;;-144.79;100.00
19827;BME280;10074;52.018;4.726;2023-05-24T06:43:04;46139.06;;;-144.79;100.00
19827;BME280;10074;52.018;4.726;2023-05-24T06:48:05;46149.06;;;-144.79;100.00
19827;BME280;10074;52.018;4.726;2023-05-24T06:53:06;46147.06;;;-144.79;100.00
19827;BME280;10074;52.018;4.726;2023-05-24T06:58:06;46137.06;;;-144.79;100.00
19827;BME280;10074;52.018;4.726;2023-05-24T07:03:07;46121.00;;;-144.79;100.00
19827;BME280;10074;52.018;4.726;2023-05-24T07:08:08;46115.00;;;-144.79;100.00
19827;BME280;10074;52.018;4.726;2023-05-24T07:13:08;46143.06;;;-144.79;100.00
19827;BME280;10074;52.018;4.726;2023-05-24T07:18:08;46141.06;;;-144.79;100.00
19827;BME280;10074;52.018;4.726;2023-05-24T07:23:09;46139.06;;;-144.79;100.00
19827;BME280;10074;52.018;4.726;2023-05-24T07:28:09;46137.06;;;-144.79;100.00
19827;BME280;10074;52.018;4.726;2023-05-24T07:33:10;46139.06;;;-144.79;100.00
19827;BME280;10074;52.018;4.726;2023-05-24T07:38:11;46139.06;;;-144.79;100.00
19827;BME280;10074;52.018;4.726;2023-05-24T07:43:11;46151.09;;;-144.79;100.00
19827;BME280;10074;52.018;4.726;2023-05-24T07:48:12;46123.00;;;-144.79;100.00
19827;BME280;10074;52.018;4.726;2023-05-24T07:53:13;46157.09;;;-144.79;100.00
19827;BME280;10074;52.018;4.726;2023-05-24T07:58:13;46129.03;;;-144.79;100.00
19827;BME280;10074;52.018;4.726;2023-05-24T08:03:14;46123.00;;;-144.79;100.00
19827;BME280;10074;52.018;4.726;2023-05-24T08:08:16;46113.00;;;-144.79;100.00
19827;BME280;10074;52.018;4.726;2023-05-24T08:13:17;46151.09;;;-144.79;100.00
19827;BME280;10074;52.018;4.726;2023-05-24T08:18:17;46133.03;;;-144.79;100.00
19827;BME280;10074;52.018;4.726;2023-05-24T08:23:18;46115.00;;;-144.79;100.00
19827;BME280;10074;52.018;4.726;2023-05-24T08:28:18;46125.03;;;-144.79;100.00
19827;BME280;10074;52.018;4.726;2023-05-24T08:33:18;46137.06;;;-144.79;100.00
19827;BME280;10074;52.018;4.726;2023-05-24T08:38:19;46131.03;;;-144.79;100.00
19827;BME280;10074;52.018;4.726;2023-05-24T08:43:20;46147.06;;;-144.79;100.00
19827;BME280;10074;52.018;4.726;2023-05-24T08:48:21;46139.06;;;-144.79;100.00
19827;BME280;10074;52.018;4.726;2023-05-24T08:53:22;46145.06;;;-144.79;100.00
19827;BME280;10074;52.018;4.726;2023-05-24T08:58:23;46145.06;;;-144.79;100.00
19827;BME280;10074;52.018;4.726;2023-05-24T09:03:23;46131.03;;;-144.79;100.00
19827;BME280;10074;52.018;4.726;2023-05-24T09:08:24;46125.03;;;-144.79;100.00
19827;BME280;10074;52.018;4.726;2023-05-24T09:13:25;46159.09;;;-144.79;100.00
19827;BME280;10074;52.018;4.726;2023-05-24T09:18:25;46143.06;;;-144.79;100.00
19827;BME280;10074;52.018;4.726;2023-05-24T09:23:26;46155.09;;;-144.79;100.00
19827;BME280;10074;52.018;4.726;2023-05-24T09:28:31;46151.09;;;-144.79;100.00
19827;BME280;10074;52.018;4.726;2023-05-24T09:33:33;46145.06;;;-144.79;100.00
19827;BME280;10074;52.018;4.726;2023-05-24T09:38:33;46147.06;;;-144.79;100.00
19827;BME280;10074;52.018;4.726;2023-05-24T09:43:47;46157.09;;;-144.79;100.00
19827;BME280;10074;52.018;4.726;2023-05-24T09:48:58;46139.06;;;-144.79;100.00
19827;BME280;10074;52.018;4.726;2023-05-24T09:54:02;46137.06;;;-144.79;100.00
19827;BME280;10074;52.018;4.726;2023-05-24T09:59:06;46201.22;;;-144.79;100.00
19827;BME280;10074;52.018;4.726;2023-05-24T10:04:07;46151.09;;;-144.79;100.00
19827;BME280;10074;52.018;4.726;2023-05-24T10:09:07;46185.16;;;-144.79;100.00
19827;BME280;10074;52.018;4.726;2023-05-24T10:14:09;46195.19;;;-144.79;100.00
19827;BME280;10074;52.018;4.726;2023-05-24T10:19:09;46209.22;;;-144.79;99.99
19827;BME280;10074;52.018;4.726;2023-05-24T10:24:12;46227.28;;;-144.79;100.00
19827;BME280;10074;52.018;4.726;2023-05-24T10:29:23;46227.28;;;-144.79;99.64
19827;BME280;10074;52.018;4.726;2023-05-24T10:34:26;46225.28;;;-144.79;99.47
19827;BME280;10074;52.018;4.726;2023-05-24T10:39:27;46211.22;;;-144.79;99.39
19827;BME280;10074;52.018;4.726;2023-05-24T10:44:28;46243.31;;;-144.79;99.13
19827;BME280;10074;52.018;4.726;2023-05-24T10:49:30;46249.34;;;-144.79;99.29
19827;BME280;10074;52.018;4.726;2023-05-24T10:54:30;46223.25;;;-144.79;99.14
19827;BME280;10074;52.018;4.726;2023-05-24T10:59:33;46217.25;;;-144.79;99.35
19827;BME280;10074;52.018;4.726;2023-05-24T11:04:46;46219.25;;;-144.79;99.14
19827;BME280;10074;52.018;4.726;2023-05-24T11:09:48;46217.25;;;-144.79;99.59
19827;BME280;10074;52.018;4.726;2023-05-24T11:14:55;46223.25;;;-144.79;99.07
19827;BME280;10074;52.018;4.726;2023-05-24T11:19:56;46245.31;;;-144.79;99.41
19827;BME280;10074;52.018;4.726;2023-05-24T11:24:56;46215.25;;;-144.79;99.64
19827;BME280;10074;52.018;4.726;2023-05-24T11:30:03;46207.22;;;-144.79;99.66
19827;BME280;10074;52.018;4.726;2023-05-24T11:35:05;46221.25;;;-144.79;99.66
19827;BME280;10074;52.018;4.726;2023-05-24T11:40:08;46203.22;;;-144.79;99.66
19827;BME280;10074;52.018;4.726;2023-05-24T11:45:12;46219.25;;;-144.79;99.42
19827;BME280;10074;52.018;4.726;2023-05-24T11:50:14;46193.19;;;-144.79;100.00
19827;BME280;10074;52.018;4.726;2023-05-24T11:55:23;46205.22;;;-144.79;100.00
19827;BME280;10074;52.018;4.726;2023-05-24T12:00:26;46215.25;;;-144.79;100.00
19827;BME280;10074;52.018;4.726;2023-05-24T12:05:27;46209.22;;;-144.79;99.99
19827;BME280;10074;52.018;4.726;2023-05-24T12:10:34;46183.16;;;-144.79;100.00
19827;BME280;10074;52.018;4.726;2023-05-24T12:15:35;46203.22;;;-144.79;100.00
19827;BME280;10074;52.018;4.726;2023-05-24T12:20:36;46193.19;;;-144.79;99.85
19827;BME280;10074;52.018;4.726;2023-05-24T12:25:37;46195.19;;;-144.79;99.77
19827;BME280;10074;52.018;4.726;2023-05-24T12:30:38;46199.19;;;-144.79;100.00
19827;BME280;10074;52.018;4.726;2023-05-24T12:35:42;46195.19;;;-144.79;100.00
19827;BME280;10074;52.018;4.726;2023-05-24T12:40:42;46195.19;;;-144.79;100.00
19827;BME280;10074;52.018;4.726;2023-05-24T12:45:43;46221.25;;;-144.79;100.00
19827;BME280;10074;52.018;4.726;2023-05-24T12:50:43;46165.13;;;-144.79;100.00
19827;BME280;10074;52.018;4.726;2023-05-24T12:55:43;46173.13;;;-144.79;100.00
19827;BME280;10074;52.018;4.726;2023-05-24T13:00:44;46171.13;;;-144.79;100.00
19827;BME280;10074;52.018;4.726;2023-05-24T13:05:49;46181.16;;;-144.79;100.00
19827;BME280;10074;52.018;4.726;2023-05-24T13:10:49;46171.13;;;-144.79;100.00
19827;BME280;10074;52.018;4.726;2023-05-24T13:15:50;46183.16;;;-144.79;100.00
19827;BME280;10074;52.018;4.726;2023-05-24T13:20:51;46187.19;;;-144.79;100.00
19827;BME280;10074;52.018;4.726;2023-05-24T13:25:51;46161.09;;;-144.79;100.00
19827;BME280;10074;52.018;4.726;2023-05-24T13:30:52;46181.16;;;-144.79;100.00
19827;BME280;10074;52.018;4.726;2023-05-24T13:35:53;46155.09;;;-144.79;100.00
19827;BME280;10074;52.018;4.726;2023-05-24T13:40:54;46167.13;;;-144.79;100.00
19827;BME280;10074;52.018;4.726;2023-05-24T13:45:55;46135.03;;;-144.79;100.00
19827;BME280;10074;52.018;4.726;2023-05-24T13:50:56;46169.13;;;-144.79;100.00
19827;BME280;10074;52.018;4.726;2023-05-24T13:55:57;46149.06;;;-144.79;100.00
19827;BME280;10074;52.018;4.726;2023-05-24T14:00:57;46151.09;;;-144.79;100.00
19827;BME280;10074;52.018;4.726;2023-05-24T14:05:58;46151.09;;;-144.79;100.00
19827;BME280;10074;52.018;4.726;2023-05-24T14:10:59;46173.13;;;-144.79;100.00
19827;BME280;10074;52.018;4.726;2023-05-24T14:16:00;46151.09;;;-144.79;100.00
19827;BME280;10074;52.018;4.726;2023-05-24T14:21:00;46157.09;;;-144.79;100.00
19827;BME280;10074;52.018;4.726;2023-05-24T14:26:01;46169.13;;;-144.79;100.00
19827;BME280;10074;52.018;4.726;2023-05-24T14:31:01;46165.13;;;-144.79;100.00
19827;BME280;10074;52.018;4.726;2023-05-24T14:36:01;46165.13;;;-144.79;100.00
19827;BME280;10074;52.018;4.726;2023-05-24T14:41:02;46171.13;;;-144.79;100.00
19827;BME280;10074;52.018;4.726;2023-05-24T14:46:02;46163.13;;;-144.79;100.00
19827;BME280;10074;52.018;4.726;2023-05-24T14:51:03;46157.09;;;-144.79;100.00
19827;BME280;10074;52.018;4.726;2023-05-24T14:56:03;46119.00;;;-144.79;100.00
19827;BME280;10074;52.018;4.726;2023-05-24T15:01:05;46139.06;;;-144.79;100.00
19827;BME280;10074;52.018;4.726;2023-05-24T15:06:08;46151.09;;;-144.79;100.00
19827;BME280;10074;52.018;4.726;2023-05-24T15:11:08;46147.06;;;-144.79;100.00
19827;BME280;10074;52.018;4.726;2023-05-24T15:16:08;46161.09;;;-144.79;100.00
19827;BME280;10074;52.018;4.726;2023-05-24T15:21:09;46139.06;;;-144.79;100.00
19827;BME280;10074;52.018;4.726;2023-05-24T15:26:10;46137.06;;;-144.79;100.00
19827;BME280;10074;52.018;4.726;2023-05-24T15:31:10;46143.06;;;-144.79;100.00
19827;BME280;10074;52.018;4.726;2023-05-24T15:36:11;46151.09;;;-144.79;100.00
19827;BME280;10074;52.018;4.726;2023-05-24T15:41:13;46141.06;;;-144.79;100.00
19827;BME280;10074;52.018;4.726;2023-05-24T15:46:13;46147.06;;;-144.79;100.00
19827;BME280;10074;52.018;4.726;2023-05-24T15:51:14;46127.03;;;-144.79;100.00
19827;BME280;10074;52.018;4.726;2023-05-24T15:56:14;46171.13;;;-144.79;100.00
19827;BME280;10074;52.018;4.726;2023-05-24T16:01:15;46137.06;;;-144.79;100.00
19827;BME280;10074;52.018;4.726;2023-05-24T16:06:15;46159.09;;;-144.79;100.00
19827;BME280;10074;52.018;4.726;2023-05-24T16:11:17;46123.00;;;-144.79;100.00
19827;BME280;10074;52.018;4.726;2023-05-24T16:16:17;46147.06;;;-144.79;100.00
19827;BME280;10074;52.018;4.726;2023-05-24T16:21:18;46153.09;;;-144.79;100.00
19827;BME280;10074;52.018;4.726;2023-05-24T16:26:18;46167.13;;;-144.79;100.00
19827;BME280;10074;52.018;4.726;2023-05-24T16:31:18;46163.13;;;-144.79;100.00
19827;BME280;10074;52.018;4.726;2023-05-24T16:36:19;46171.13;;;-144.79;100.00
19827;BME280;10074;52.018;4.726;2023-05-24T16:41:20;46155.09;;;-144.79;100.00
19827;BME280;10074;52.018;4.726;2023-05-24T16:46:20;46155.09;;;-144.79;100.00
19827;BME280;10074;52.018;4.726;2023-05-24T16:51:20;46175.16;;;-144.79;100.00
19827;BME280;10074;52.018;4.726;2023-05-24T16:56:21;46165.13;;;-144.79;100.00
19827;BME280;10074;52.018;4.726;2023-05-24T17:01:22;46151.09;;;-144.79;100.00
19827;BME280;10074;52.018;4.726;2023-05-24T17:06:22;46169.13;;;-144.79;100.00
19827;BME280;10074;52.018;4.726;2023-05-24T17:11:23;46171.13;;;-144.79;100.00
19827;BME280;10074;52.018;4.726;2023-05-24T17:16:23;46191.19;;;-144.79;100.00
19827;BME280;10074;52.018;4.726;2023-05-24T17:21:23;46161.09;;;-144.79;100.00
19827;BME280;10074;52.018;4.726;2023-05-24T17:26:26;46163.13;;;-144.79;100.00
19827;BME280;10074;52.018;4.726;2023-05-24T17:31:27;46171.13;;;-144.79;100.00
19827;BME280;10074;52.018;4.726;2023-05-24T17:36:27;46197.19;;;-144.79;100.00
19827;BME280;10074;52.018;4.726;2023-05-24T17:41:27;46185.16;;;-144.79;100.00
19827;BME280;10074;52.018;4.726;2023-05-24T17:46:28;46179.16;;;-144.79;100.00
19827;BME280;10074;52.018;4.726;2023-05-24T17:51:28;46171.13;;;-144.79;100.00
19827;BME280;10074;52.018;4.726;2023-05-24T17:56:28;46181.16;;;-144.79;100.00
19827;BME280;10074;52.018;4.726;2023-05-24T18:01:30;46163.13;;;-144.79;100.00
19827;BME280;10074;52.018;4.726;2023-05-24T18:06:30;46159.09;;;-144.79;100.00
19827;BME280;10074;52.018;4.726;2023-05-24T18:11:30;46207.22;;;-144.79;100.00
19827;BME280;10074;52.018;4.726;2023-05-24T18:16:31;46191.19;;;-144.79;100.00
19827;BME280;10074;52.018;4.726;2023-05-24T18:21:31;46185.16;;;-144.79;100.00
19827;BME280;10074;52.018;4.726;2023-05-24T18:26:31;46179.16;;;-144.79;100.00
19827;BME280;10074;52.018;4.726;2023-05-24T18:31:32;46187.19;;;-144.79;100.00
19827;BME280;10074;52.018;4.726;2023-05-24T18:36:32;46179.16;;;-144.79;100.00
19827;BME280;10074;52.018;4.726;2023-05-24T18:41:32;46195.19;;;-144.79;100.00
19827;BME280;10074;52.018;4.726;2023-05-24T18:46:33;46193.19;;;-144.79;100.00
19827;BME280;10074;52.018;4.726;2023-05-24T18:51:33;46153.09;;;-144.79;100.00
19827;BME280;10074;52.018;4.726;2023-05-24T18:56:33;46187.19;;;-144.79;100.00
19827;BME280;10074;52.018;4.726;2023-05-24T19:01:33;46187.19;;;-144.79;100.00
19827;BME280;10074;52.018;4.726;2023-05-24T19:06:35;46173.13;;;-144.79;100.00
19827;BME280;10074;52.018;4.726;2023-05-24T19:11:35;46155.09;;;-144.79;100.00
19827;BME280;10074;52.018;4.726;2023-05-24T19:16:36;46175.16;;;-144.79;100.00
19827;BME280;10074;52.018;4.726;2023-05-24T19:21:36;46165.13;;;-144.79;100.00
19827;BME280;10074;52.018;4.726;2023-05-24T19:26:36;46157.09;;;-144.79;100.00
19827;BME280;10074;52.018;4.726;2023-05-24T19:31:36;46171.13;;;-144.79;100.00
19827;BME280;10074;52.018;4.726;2023-05-24T19:36:37;46153.09;;;-144.79;100.00
19827;BME280;10074;52.018;4.726;2023-05-24T19:41:37;46165.13;;;-144.79;100.00
19827;BME280;10074;52.018;4.726;2023-05-24T19:46:38;46159.09;;;-144.79;100.00
19827;BME280;10074;52.018;4.726;2023-05-24T19:51:38;46157.09;;;-144.79;100.00
19827;BME280;10074;52.018;4.726;2023-05-24T19:56:38;46159.09;;;-144.79;100.00
19827;BME280;10074;52.018;4.726;2023-05-24T20:01:38;46135.03;;;-144.79;100.00
19827;BME280;10074;52.018;4.726;2023-05-24T20:06:39;46155.09;;;-144.79;100.00
19827;BME280;10074;52.018;4.726;2023-05-24T20:11:39;46147.06;;;-144.79;100.00
19827;BME280;10074;52.018;4.726;2023-05-24T20:16:40;46137.06;;;-144.79;100.00
19827;BME280;10074;52.018;4.726;2023-05-24T20:21:41;46157.09;;;-144.79;100.00
19827;BME280;10074;52.018;4.726;2023-05-24T20:26:41;46117.00;;;-144.79;100.00
19827;BME280;10074;52.018;4.726;2023-05-24T20:31:41;46135.03;;;-144.79;100.00
19827;BME280;10074;52.018;4.726;2023-05-24T20:36:42;46135.03;;;-144.79;100.00
19827;BME280;10074;52.018;4.726;2023-05-24T20:41:42;46125.03;;;-144.79;100.00
19827;BME280;10074;52.018;4.726;2023-05-24T20:46:42;46145.06;;;-144.79;100.00
19827;BME280;10074;52.018;4.726;2023-05-24T20:51:43;46127.03;;;-144.79;100.00
19827;BME280;10074;52.018;4.726;2023-05-24T20:56:43;46133.03;;;-144.79;100.00
19827;BME280;10074;52.018;4.726;2023-05-24T21:01:43;46125.03;;;-144.79;100.00
19827;BME280;10074;52.018;4.726;2023-05-24T21:06:44;46143.06;;;-144.79;100.00
19827;BME280;10074;52.018;4.726;2023-05-24T21:11:44;46127.03;;;-144.79;100.00
19827;BME280;10074;52.018;4.726;2023-05-24T21:16:44;46143.06;;;-144.79;100.00
19827;BME280;10074;52.018;4.726;2023-05-24T21:21:45;46127.03;;;-144.79;100.00
19827;BME280;10074;52.018;4.726;2023-05-24T21:26:45;46131.03;;;-144.79;100.00
19827;BME280;10074;52.018;4.726;2023-05-24T21:31:46;46143.06;;;-144.79;100.00
19827;BME280;10074;52.018;4.726;2023-05-24T21:36:47;46121.00;;;-144.79;100.00
19827;BME280;10074;52.018;4.726;2023-05-24T21:41:47;46135.03;;;-144.79;100.00
19827;BME280;10074;52.018;4.726;2023-05-24T21:46:47;46117.00;;;-144.79;100.00
19827;BME280;10074;52.018;4.726;2023-05-24T21:51:48;46161.09;;;-144.79;100.00
19827;BME280;10074;52.018;4.726;2023-05-24T21:56:48;46131.03;;;-144.79;100.00
19827;BME280;10074;52.018;4.726;2023-05-24T22:01:48;46141.06;;;-144.79;100.00
19827;BME280;10074;52.018;4.726;2023-05-24T22:06:50;46151.09;;;-144.79;100.00
19827;BME280;10074;52.018;4.726;2023-05-24T22:11:50;46147.06;;;-144.79;100.00
19827;BME280;10074;52.018;4.726;2023-05-24T22:16:51;46141.06;;;-144.79;100.00
19827;BME280;10074;52.018;4.726;2023-05-24T22:21:51;46149.06;;;-144.79;100.00
19827;BME280;10074;52.018;4.726;2023-05-24T22:26:51;46143.06;;;-144.79;100.00
19827;BME280;10074;52.018;4.726;2023-05-24T22:31:52;46145.06;;;-144.79;100.00
19827;BME280;10074;52.018;4.726;2023-05-24T22:36:52;46139.06;;;-144.79;100.00
19827;BME280;10074;52.018;4.726;2023-05-24T22:41:53;46131.03;;;-144.79;100.00
19827;BME280;10074;52.018;4.726;2023-05-24T22:46:53;46143.06;;;-144.79;100.00
19827;BME280;10074;52.018;4.726;2023-05-24T22:51:53;46137.06;;;-144.79;100.00
19827;BME280;10074;52.018;4.726;2023-05-24T22:56:55;46143.06;;;-144.79;100.00
19827;BME280;10074;52.018;4.726;2023-05-24T23:01:55;46139.06;;;-144.79;100.00
19827;BME280;10074;52.018;4.726;2023-05-24T23:06:56;46135.03;;;-144.79;100.00
19827;BME280;10074;52.018;4.726;2023-05-24T23:11:56;46147.06;;;-144.79;100.00
19827;BME280;10074;52.018;4.726;2023-05-24T23:16:57;46143.06;;;-144.79;100.00
19827;BME280;10074;52.018;4.726;2023-05-24T23:22:01;46151.09;;;-144.79;100.00
19827;BME280;10074;52.018;4.726;2023-05-24T23:27:05;46151.09;;;-144.79;100.00
19827;BME280;10074;52.018;4.726;2023-05-24T23:32:06;46155.09;;;-144.79;100.00
19827;BME280;10074;52.018;4.726;2023-05-24T23:37:06;46165.13;;;-144.79;100.00
19827;BME280;10074;52.018;4.726;2023-05-24T23:42:07;46161.09;;;-144.79;100.00
19827;BME280;10074;52.018;4.726;2023-05-24T23:47:07;46149.06;;;-144.79;100.00
19827;BME280;10074;52.018;4.726;2023-05-24T23:52:08;46157.09;;;-144.79;100.00
19827;BME280;10074;52.018;4.726;2023-05-24T23:57:08;46157.09;;;-144.79;100.00
